sensor_id;sensor_type;location;lat;lon;timestamp;pressure;altitude;pressure_sealevel;temperature;humidity
46638;BME280;32365;46.938;7.390;2022-09-27T07:47:40;94228.31;;;10.90;69.87
46638;BME280;32365;46.938;7.390;2022-09-27T07:50:08;94234.00;;;10.98;69.51
46638;BME280;32365;46.938;7.390;2022-09-27T07:52:37;94240.50;;;11.00;68.98
46638;BME280;32365;46.938;7.390;2022-09-27T07:55:04;94241.75;;;10.67;68.34
46638;BME280;32365;46.938;7.390;2022-09-27T07:57:31;94241.78;;;10.98;68.39
46638;BME280;32365;46.938;7.390;2022-09-27T07:59:58;94244.91;;;11.05;68.27
46638;BME280;32365;46.938;7.390;2022-09-27T08:02:24;94253.16;;;11.07;67.26
46638;BME280;32365;46.938;7.390;2022-09-27T08:04:52;94248.00;;;11.53;67.42
46638;BME280;32365;46.938;7.390;2022-09-27T08:07:19;94250.84;;;11.57;65.33
46638;BME280;32365;46.938;7.390;2022-09-27T08:09:45;94248.22;;;11.78;66.51
46638;BME280;32365;46.938;7.390;2022-09-27T08:12:12;94254.75;;;11.49;66.98
46638;BME280;32365;46.938;7.390;2022-09-27T08:14:38;94251.63;;;11.58;67.05
46638;BME280;32365;46.938;7.390;2022-09-27T08:17:05;94257.34;;;11.39;66.99
46638;BME280;32365;46.938;7.390;2022-09-27T08:19:31;94248.28;;;11.36;68.36
46638;BME280;32365;46.938;7.390;2022-09-27T08:21:59;94238.94;;;11.30;65.36
46638;BME280;32365;46.938;7.390;2022-09-27T08:24:26;94244.63;;;11.17;67.52
46638;BME280;32365;46.938;7.390;2022-09-27T08:26:53;94245.66;;;11.05;67.60
46638;BME280;32365;46.938;7.390;2022-09-27T08:29:19;94249.28;;;10.94;67.21
46638;BME280;32365;46.938;7.390;2022-09-27T08:31:46;94234.28;;;11.27;67.71
46638;BME280;32365;46.938;7.390;2022-09-27T08:34:12;94240.72;;;11.55;65.13
46638;BME280;32365;46.938;7.390;2022-09-27T08:36:38;94237.06;;;11.88;65.92
46638;BME280;32365;46.938;7.390;2022-09-27T08:39:06;94255.97;;;11.88;66.19
46638;BME280;32365;46.938;7.390;2022-09-27T08:41:34;94251.84;;;11.77;65.72
46638;BME280;32365;46.938;7.390;2022-09-27T08:44:08;94256.81;;;11.63;67.58
46638;BME280;32365;46.938;7.390;2022-09-27T08:46:38;94255.78;;;11.43;66.56
46638;BME280;32365;46.938;7.390;2022-09-27T08:49:09;94250.09;;;11.51;66.41
46638;BME280;32365;46.938;7.390;2022-09-27T08:51:37;94249.78;;;11.63;64.45
46638;BME280;32365;46.938;7.390;2022-09-27T08:54:07;94252.63;;;11.72;66.29
46638;BME280;32365;46.938;7.390;2022-09-27T08:56:38;94252.34;;;11.89;64.65
46638;BME280;32365;46.938;7.390;2022-09-27T08:59:06;94263.50;;;12.00;64.60
46638;BME280;32365;46.938;7.390;2022-09-27T09:01:36;94261.16;;;11.88;64.06
46638;BME280;32365;46.938;7.390;2022-09-27T09:04:03;94262.19;;;11.92;64.53
46638;BME280;32365;46.938;7.390;2022-09-27T09:06:32;94257.25;;;11.96;63.02
46638;BME280;32365;46.938;7.390;2022-09-27T09:09:03;94260.25;;;12.44;61.66
46638;BME280;32365;46.938;7.390;2022-09-27T09:11:37;94262.41;;;12.16;61.47
46638;BME280;32365;46.938;7.390;2022-09-27T09:14:29;94267.34;;;11.97;61.93
46638;BME280;32365;46.938;7.390;2022-09-27T09:17:02;94269.97;;;12.08;62.30
46638;BME280;32365;46.938;7.390;2022-09-27T09:19:37;94272.28;;;12.14;61.98
46638;BME280;32365;46.938;7.390;2022-09-27T09:22:11;94260.44;;;11.62;63.44
46638;BME280;32365;46.938;7.390;2022-09-27T09:24:46;94261.44;;;11.86;64.17
46638;BME280;32365;46.938;7.390;2022-09-27T09:27:20;94265.31;;;11.99;63.35
46638;BME280;32365;46.938;7.390;2022-09-27T09:29:54;94263.78;;;11.78;64.14
46638;BME280;32365;46.938;7.390;2022-09-27T09:32:24;94270.22;;;11.96;64.76
46638;BME280;32365;46.938;7.390;2022-09-27T09:34:55;94272.06;;;11.90;65.92
46638;BME280;32365;46.938;7.390;2022-09-27T09:37:25;94284.00;;;11.50;66.71
46638;BME280;32365;46.938;7.390;2022-09-27T09:39:55;94285.00;;;10.82;74.52
46638;BME280;32365;46.938;7.390;2022-09-27T09:42:25;94278.69;;;10.46;76.12
46638;BME280;32365;46.938;7.390;2022-09-27T09:44:54;94269.09;;;10.47;74.36
46638;BME280;32365;46.938;7.390;2022-09-27T09:47:25;94264.19;;;10.45;77.50
46638;BME280;32365;46.938;7.390;2022-09-27T09:49:56;94262.88;;;10.48;77.46
46638;BME280;32365;46.938;7.390;2022-09-27T09:52:25;94266.44;;;10.37;77.54
46638;BME280;32365;46.938;7.390;2022-09-27T09:54:55;94265.13;;;10.24;79.27
46638;BME280;32365;46.938;7.390;2022-09-27T09:57:26;94263.03;;;10.21;80.73
46638;BME280;32365;46.938;7.390;2022-09-27T09:59:56;94268.44;;;10.14;81.66
46638;BME280;32365;46.938;7.390;2022-09-27T10:02:25;94254.31;;;9.84;81.41
46638;BME280;32365;46.938;7.390;2022-09-27T10:04:54;94265.31;;;9.69;81.98
46638;BME280;32365;46.938;7.390;2022-09-27T10:07:21;94284.69;;;9.61;85.37
46638;BME280;32365;46.938;7.390;2022-09-27T10:09:48;94272.94;;;9.48;85.22
46638;BME280;32365;46.938;7.390;2022-09-27T10:12:15;94258.19;;;9.44;86.04
46638;BME280;32365;46.938;7.390;2022-09-27T10:14:43;94267.91;;;9.64;82.80
46638;BME280;32365;46.938;7.390;2022-09-27T10:17:12;94271.00;;;10.09;81.95
46638;BME280;32365;46.938;7.390;2022-09-27T10:19:40;94269.56;;;10.34;82.21
46638;BME280;32365;46.938;7.390;2022-09-27T10:22:10;94272.53;;;10.68;82.33
46638;BME280;32365;46.938;7.390;2022-09-27T10:24:53;94269.47;;;10.92;80.53
46638;BME280;32365;46.938;7.390;2022-09-27T10:27:20;94261.47;;;11.35;78.91
46638;BME280;32365;46.938;7.390;2022-09-27T10:29:48;94260.19;;;11.58;79.71
46638;BME280;32365;46.938;7.390;2022-09-27T10:32:22;94265.34;;;11.68;79.66
46638;BME280;32365;46.938;7.390;2022-09-27T10:34:51;94268.72;;;11.33;78.23
46638;BME280;32365;46.938;7.390;2022-09-27T10:37:19;94257.59;;;11.37;77.89
46638;BME280;32365;46.938;7.390;2022-09-27T10:39:47;94262.25;;;11.25;80.75
46638;BME280;32365;46.938;7.390;2022-09-27T10:42:21;94267.69;;;11.13;79.67
46638;BME280;32365;46.938;7.390;2022-09-27T10:44:50;94259.66;;;11.51;79.05
46638;BME280;32365;46.938;7.390;2022-09-27T10:47:17;94268.19;;;11.77;79.80
46638;BME280;32365;46.938;7.390;2022-09-27T10:49:47;94264.28;;;11.95;78.53
46638;BME280;32365;46.938;7.390;2022-09-27T10:52:15;94264.53;;;11.89;75.51
46638;BME280;32365;46.938;7.390;2022-09-27T10:54:50;94261.69;;;12.06;76.26
46638;BME280;32365;46.938;7.390;2022-09-27T10:57:18;94263.72;;;12.19;75.94
46638;BME280;32365;46.938;7.390;2022-09-27T10:59:45;94258.25;;;12.26;75.38
46638;BME280;32365;46.938;7.390;2022-09-27T11:02:18;94256.31;;;12.47;72.62
46638;BME280;32365;46.938;7.390;2022-09-27T11:07:26;94256.78;;;12.65;68.72
46638;BME280;32365;46.938;7.390;2022-09-27T11:09:53;94251.28;;;12.71;68.15
46638;BME280;32365;46.938;7.390;2022-09-27T11:12:20;94261.53;;;12.97;68.37
46638;BME280;32365;46.938;7.390;2022-09-27T11:14:52;94261.25;;;12.99;65.73
46638;BME280;32365;46.938;7.390;2022-09-27T11:17:23;94250.16;;;13.28;64.56
46638;BME280;32365;46.938;7.390;2022-09-27T11:20:02;94256.25;;;13.07;63.30
46638;BME280;32365;46.938;7.390;2022-09-27T11:22:38;94246.53;;;13.23;63.19
46638;BME280;32365;46.938;7.390;2022-09-27T11:25:13;94245.56;;;13.78;60.54
46638;BME280;32365;46.938;7.390;2022-09-27T11:27:44;94250.53;;;14.47;60.49
46638;BME280;32365;46.938;7.390;2022-09-27T11:30:14;94248.28;;;14.41;59.64
46638;BME280;32365;46.938;7.390;2022-09-27T11:35:32;94241.38;;;14.31;57.55
46638;BME280;32365;46.938;7.390;2022-09-27T11:38:08;94247.34;;;13.53;59.44
46638;BME280;32365;46.938;7.390;2022-09-27T11:40:42;94241.81;;;12.91;59.66
46638;BME280;32365;46.938;7.390;2022-09-27T11:43:18;94249.84;;;12.50;60.44
46638;BME280;32365;46.938;7.390;2022-09-27T11:45:52;94257.66;;;12.39;61.99
46638;BME280;32365;46.938;7.390;2022-09-27T11:48:23;94254.41;;;12.68;62.74
46638;BME280;32365;46.938;7.390;2022-09-27T11:50:57;94248.25;;;12.54;62.83
46638;BME280;32365;46.938;7.390;2022-09-27T11:53:33;94257.22;;;12.22;63.17
46638;BME280;32365;46.938;7.390;2022-09-27T11:56:05;94255.34;;;12.38;64.03
46638;BME280;32365;46.938;7.390;2022-09-27T11:58:39;94258.50;;;12.29;62.57
46638;BME280;32365;46.938;7.390;2022-09-27T12:01:12;94250.53;;;12.00;65.61
46638;BME280;32365;46.938;7.390;2022-09-27T12:04:02;94245.84;;;11.97;64.49
46638;BME280;32365;46.938;7.390;2022-09-27T12:06:37;94252.63;;;11.88;66.35
46638;BME280;32365;46.938;7.390;2022-09-27T12:09:07;94248.72;;;11.95;65.08
46638;BME280;32365;46.938;7.390;2022-09-27T12:11:36;94244.59;;;11.79;65.08
46638;BME280;32365;46.938;7.390;2022-09-27T12:14:05;94248.44;;;12.07;65.95
46638;BME280;32365;46.938;7.390;2022-09-27T12:16:33;94239.63;;;12.08;65.36
46638;BME280;32365;46.938;7.390;2022-09-27T12:19:02;94238.84;;;12.08;66.17
46638;BME280;32365;46.938;7.390;2022-09-27T12:21:29;94234.94;;;11.95;64.64
46638;BME280;32365;46.938;7.390;2022-09-27T12:23:58;94233.16;;;11.85;65.03
46638;BME280;32365;46.938;7.390;2022-09-27T12:26:28;94228.03;;;11.69;65.74
46638;BME280;32365;46.938;7.390;2022-09-27T12:28:57;94238.66;;;11.63;66.74
46638;BME280;32365;46.938;7.390;2022-09-27T12:31:26;94242.31;;;11.36;66.74
46638;BME280;32365;46.938;7.390;2022-09-27T12:33:58;94242.31;;;11.10;69.72
46638;BME280;32365;46.938;7.390;2022-09-27T12:36:27;94234.78;;;11.14;71.35
46638;BME280;32365;46.938;7.390;2022-09-27T12:39:02;94230.13;;;11.47;70.37
46638;BME280;32365;46.938;7.390;2022-09-27T12:41:31;94232.63;;;12.04;68.91
46638;BME280;32365;46.938;7.390;2022-09-27T12:43:59;94221.75;;;12.01;69.17
46638;BME280;32365;46.938;7.390;2022-09-27T12:46:28;94224.81;;;12.09;65.03
46638;BME280;32365;46.938;7.390;2022-09-27T12:48:59;94216.97;;;12.29;64.39
46638;BME280;32365;46.938;7.390;2022-09-27T12:51:31;94222.66;;;12.82;64.38
46638;BME280;32365;46.938;7.390;2022-09-27T12:54:04;94216.84;;;12.95;62.62
46638;BME280;32365;46.938;7.390;2022-09-27T12:56:38;94221.03;;;12.91;61.36
46638;BME280;32365;46.938;7.390;2022-09-27T13:02:20;94218.78;;;12.79;61.97
46638;BME280;32365;46.938;7.390;2022-09-27T13:05:00;94212.53;;;12.80;62.79
46638;BME280;32365;46.938;7.390;2022-09-27T13:07:34;94208.91;;;12.36;63.76
46638;BME280;32365;46.938;7.390;2022-09-27T13:12:55;94212.72;;;12.49;63.52
46638;BME280;32365;46.938;7.390;2022-09-27T13:15:25;94214.53;;;12.49;62.65
46638;BME280;32365;46.938;7.390;2022-09-27T13:17:53;94224.44;;;12.41;63.75
46638;BME280;32365;46.938;7.390;2022-09-27T13:26:02;94203.13;;;12.50;61.98
46638;BME280;32365;46.938;7.390;2022-09-27T13:28:33;94207.41;;;12.20;62.19
46638;BME280;32365;46.938;7.390;2022-09-27T13:31:02;94206.69;;;12.04;63.32
46638;BME280;32365;46.938;7.390;2022-09-27T13:33:31;94214.22;;;11.95;64.83
46638;BME280;32365;46.938;7.390;2022-09-27T13:38:50;94208.25;;;11.89;63.12
46638;BME280;32365;46.938;7.390;2022-09-27T13:41:17;94212.69;;;11.89;63.11
46638;BME280;32365;46.938;7.390;2022-09-27T13:43:48;94203.31;;;11.93;62.49
46638;BME280;32365;46.938;7.390;2022-09-27T13:46:18;94211.88;;;11.98;62.09
46638;BME280;32365;46.938;7.390;2022-09-27T13:48:47;94206.69;;;11.88;62.52
46638;BME280;32365;46.938;7.390;2022-09-27T13:51:17;94210.41;;;11.66;63.60
46638;BME280;32365;46.938;7.390;2022-09-27T13:53:54;94222.84;;;11.54;64.37
46638;BME280;32365;46.938;7.390;2022-09-27T13:59:04;94222.59;;;11.61;63.58
46638;BME280;32365;46.938;7.390;2022-09-27T14:01:34;94225.44;;;11.59;62.78
46638;BME280;32365;46.938;7.390;2022-09-27T14:04:16;94227.53;;;11.57;62.10
46638;BME280;32365;46.938;7.390;2022-09-27T14:06:46;94218.47;;;11.49;61.98
46638;BME280;32365;46.938;7.390;2022-09-27T14:09:15;94222.88;;;11.59;61.96
46638;BME280;32365;46.938;7.390;2022-09-27T14:11:43;94213.19;;;11.80;62.18
46638;BME280;32365;46.938;7.390;2022-09-27T14:14:16;94201.72;;;12.12;61.07
46638;BME280;32365;46.938;7.390;2022-09-27T14:16:44;94201.16;;;12.26;60.19
46638;BME280;32365;46.938;7.390;2022-09-27T14:19:12;94207.72;;;11.97;60.99
46638;BME280;32365;46.938;7.390;2022-09-27T14:21:41;94211.63;;;12.00;61.00
46638;BME280;32365;46.938;7.390;2022-09-27T14:27:09;94214.72;;;11.92;61.63
46638;BME280;32365;46.938;7.390;2022-09-27T14:29:39;94206.47;;;11.79;62.63
46638;BME280;32365;46.938;7.390;2022-09-27T14:32:08;94193.97;;;12.07;61.97
46638;BME280;32365;46.938;7.390;2022-09-27T14:34:36;94194.44;;;12.20;59.99
46638;BME280;32365;46.938;7.390;2022-09-27T14:37:03;94190.44;;;12.38;60.42
46638;BME280;32365;46.938;7.390;2022-09-27T14:39:51;94188.09;;;12.41;60.11
46638;BME280;32365;46.938;7.390;2022-09-27T14:42:19;94194.13;;;12.26;59.88
46638;BME280;32365;46.938;7.390;2022-09-27T14:44:47;94198.94;;;11.88;60.65
46638;BME280;32365;46.938;7.390;2022-09-27T14:47:16;94206.25;;;11.70;61.69
46638;BME280;32365;46.938;7.390;2022-09-27T14:49:47;94212.47;;;11.69;62.95
46638;BME280;32365;46.938;7.390;2022-09-27T14:52:18;94223.09;;;11.63;65.36
46638;BME280;32365;46.938;7.390;2022-09-27T14:54:55;94222.88;;;11.38;68.27
46638;BME280;32365;46.938;7.390;2022-09-27T14:57:22;94214.84;;;11.19;70.51
46638;BME280;32365;46.938;7.390;2022-09-27T14:59:50;94224.72;;;11.17;70.32
46638;BME280;32365;46.938;7.390;2022-09-27T15:02:17;94233.75;;;11.04;71.87
46638;BME280;32365;46.938;7.390;2022-09-27T15:04:46;94235.78;;;10.76;72.28
46638;BME280;32365;46.938;7.390;2022-09-27T15:07:14;94227.75;;;10.68;73.80
46638;BME280;32365;46.938;7.390;2022-09-27T15:09:41;94221.50;;;10.53;74.51
46638;BME280;32365;46.938;7.390;2022-09-27T15:12:08;94215.31;;;10.65;74.33
46638;BME280;32365;46.938;7.390;2022-09-27T15:14:36;94211.72;;;10.86;72.96
46638;BME280;32365;46.938;7.390;2022-09-27T15:17:13;94213.03;;;11.30;71.85
46638;BME280;32365;46.938;7.390;2022-09-27T15:19:49;94222.09;;;11.38;70.44
46638;BME280;32365;46.938;7.390;2022-09-27T15:22:21;94227.56;;;11.21;68.63
46638;BME280;32365;46.938;7.390;2022-09-27T15:24:47;94223.66;;;11.13;69.75
46638;BME280;32365;46.938;7.390;2022-09-27T15:27:15;94225.47;;;11.02;69.64
46638;BME280;32365;46.938;7.390;2022-09-27T15:29:46;94216.66;;;11.19;69.34
46638;BME280;32365;46.938;7.390;2022-09-27T15:32:15;94230.91;;;11.01;68.75
46638;BME280;32365;46.938;7.390;2022-09-27T15:34:42;94230.91;;;10.90;68.94
46638;BME280;32365;46.938;7.390;2022-09-27T15:37:10;94235.81;;;10.92;68.45
46638;BME280;32365;46.938;7.390;2022-09-27T15:39:49;94239.94;;;10.83;69.19
46638;BME280;32365;46.938;7.390;2022-09-27T15:42:15;94247.97;;;10.76;69.86
46638;BME280;32365;46.938;7.390;2022-09-27T15:44:44;94239.41;;;10.70;70.36
46638;BME280;32365;46.938;7.390;2022-09-27T15:50:00;94234.72;;;10.52;70.02
46638;BME280;32365;46.938;7.390;2022-09-27T15:52:47;94237.56;;;10.55;69.24
46638;BME280;32365;46.938;7.390;2022-09-27T15:55:15;94233.94;;;10.46;69.97
46638;BME280;32365;46.938;7.390;2022-09-27T15:57:43;94237.28;;;10.46;69.47
46638;BME280;32365;46.938;7.390;2022-09-27T16:00:11;94234.44;;;10.43;68.88
46638;BME280;32365;46.938;7.390;2022-09-27T16:02:38;94234.94;;;10.40;69.26
46638;BME280;32365;46.938;7.390;2022-09-27T16:05:06;94231.06;;;10.42;69.30
46638;BME280;32365;46.938;7.390;2022-09-27T16:07:33;94232.81;;;10.31;68.64
46638;BME280;32365;46.938;7.390;2022-09-27T16:09:59;94232.03;;;10.31;68.14
46638;BME280;32365;46.938;7.390;2022-09-27T16:12:28;94234.09;;;10.34;68.75
46638;BME280;32365;46.938;7.390;2022-09-27T16:14:55;94223.50;;;10.30;69.03
46638;BME280;32365;46.938;7.390;2022-09-27T16:17:21;94229.47;;;10.36;69.30
46638;BME280;32365;46.938;7.390;2022-09-27T16:19:48;94221.94;;;10.35;70.37
46638;BME280;32365;46.938;7.390;2022-09-27T16:22:16;94220.09;;;10.20;70.41
46638;BME280;32365;46.938;7.390;2022-09-27T16:24:43;94215.94;;;10.13;71.84
46638;BME280;32365;46.938;7.390;2022-09-27T16:27:10;94222.41;;;10.16;70.31
46638;BME280;32365;46.938;7.390;2022-09-27T16:29:36;94224.44;;;10.09;71.71
46638;BME280;32365;46.938;7.390;2022-09-27T16:32:03;94220.84;;;10.10;70.75
46638;BME280;32365;46.938;7.390;2022-09-27T16:34:31;94219.03;;;10.10;70.52
46638;BME280;32365;46.938;7.390;2022-09-27T16:36:57;94237.13;;;10.10;70.40
46638;BME280;32365;46.938;7.390;2022-09-27T16:39:25;94230.34;;;9.99;71.50
46638;BME280;32365;46.938;7.390;2022-09-27T16:41:51;94240.16;;;9.97;72.60
46638;BME280;32365;46.938;7.390;2022-09-27T16:44:18;94236.47;;;9.82;73.30
46638;BME280;32365;46.938;7.390;2022-09-27T16:46:45;94251.16;;;9.72;75.73
46638;BME280;32365;46.938;7.390;2022-09-27T16:49:11;94261.59;;;9.49;77.30
46638;BME280;32365;46.938;7.390;2022-09-27T16:51:51;94249.38;;;9.39;78.68
46638;BME280;32365;46.938;7.390;2022-09-27T16:54:28;94243.91;;;9.31;79.31
46638;BME280;32365;46.938;7.390;2022-09-27T16:56:55;94249.28;;;9.24;80.49
46638;BME280;32365;46.938;7.390;2022-09-27T16:59:21;94236.78;;;9.11;82.10
46638;BME280;32365;46.938;7.390;2022-09-27T17:01:48;94231.59;;;9.11;82.27
46638;BME280;32365;46.938;7.390;2022-09-27T17:04:15;94235.69;;;9.06;82.33
46638;BME280;32365;46.938;7.390;2022-09-27T17:06:41;94224.28;;;9.02;83.45
46638;BME280;32365;46.938;7.390;2022-09-27T17:09:08;94229.19;;;8.99;84.37
46638;BME280;32365;46.938;7.390;2022-09-27T17:11:37;94224.00;;;8.99;83.96
46638;BME280;32365;46.938;7.390;2022-09-27T17:14:03;94230.19;;;8.98;83.81
46638;BME280;32365;46.938;7.390;2022-09-27T17:16:30;94232.00;;;8.97;84.45
46638;BME280;32365;46.938;7.390;2022-09-27T17:18:56;94236.63;;;8.95;84.42
46638;BME280;32365;46.938;7.390;2022-09-27T17:21:23;94223.47;;;8.97;84.66
46638;BME280;32365;46.938;7.390;2022-09-27T17:23:49;94235.06;;;8.94;83.68
46638;BME280;32365;46.938;7.390;2022-09-27T17:26:16;94242.59;;;8.96;84.54
46638;BME280;32365;46.938;7.390;2022-09-27T17:28:44;94238.97;;;8.97;84.88
46638;BME280;32365;46.938;7.390;2022-09-27T17:31:12;94237.91;;;8.92;84.56
46638;BME280;32365;46.938;7.390;2022-09-27T17:33:40;94237.13;;;8.92;84.35
46638;BME280;32365;46.938;7.390;2022-09-27T17:36:08;94232.25;;;8.96;82.76
46638;BME280;32365;46.938;7.390;2022-09-27T17:38:36;94235.16;;;9.04;82.24
46638;BME280;32365;46.938;7.390;2022-09-27T17:41:03;94221.00;;;9.07;82.07
46638;BME280;32365;46.938;7.390;2022-09-27T17:43:29;94244.75;;;9.09;82.79
46638;BME280;32365;46.938;7.390;2022-09-27T17:46:01;94232.63;;;9.09;80.99
46638;BME280;32365;46.938;7.390;2022-09-27T17:48:28;94236.22;;;9.08;81.30
46638;BME280;32365;46.938;7.390;2022-09-27T17:51:12;94242.97;;;9.09;81.87
46638;BME280;32365;46.938;7.390;2022-09-27T17:53:38;94241.97;;;9.16;82.36
46638;BME280;32365;46.938;7.390;2022-09-27T17:56:05;94244.25;;;9.12;82.43
46638;BME280;32365;46.938;7.390;2022-09-27T17:58:32;94241.13;;;9.10;82.07
46638;BME280;32365;46.938;7.390;2022-09-27T18:01:01;94256.41;;;9.12;82.98
46638;BME280;32365;46.938;7.390;2022-09-27T18:03:28;94259.28;;;9.15;82.62
46638;BME280;32365;46.938;7.390;2022-09-27T18:05:54;94255.41;;;9.18;82.02
46638;BME280;32365;46.938;7.390;2022-09-27T18:08:21;94252.28;;;9.16;81.90
46638;BME280;32365;46.938;7.390;2022-09-27T18:10:48;94260.81;;;9.16;81.68
46638;BME280;32365;46.938;7.390;2022-09-27T18:13:15;94256.94;;;9.14;81.67
46638;BME280;32365;46.938;7.390;2022-09-27T18:15:41;94250.03;;;9.19;82.27
46638;BME280;32365;46.938;7.390;2022-09-27T18:18:09;94260.53;;;9.13;81.87
46638;BME280;32365;46.938;7.390;2022-09-27T18:20:35;94258.94;;;9.06;82.95
46638;BME280;32365;46.938;7.390;2022-09-27T18:23:02;94264.06;;;9.01;83.60
46638;BME280;32365;46.938;7.390;2022-09-27T18:25:29;94259.94;;;9.00;82.94
46638;BME280;32365;46.938;7.390;2022-09-27T18:27:55;94256.53;;;9.00;83.04
46638;BME280;32365;46.938;7.390;2022-09-27T18:30:22;94264.84;;;9.02;82.72
46638;BME280;32365;46.938;7.390;2022-09-27T18:32:48;94265.94;;;9.11;81.04
46638;BME280;32365;46.938;7.390;2022-09-27T18:35:16;94255.38;;;9.13;79.93
46638;BME280;32365;46.938;7.390;2022-09-27T18:37:44;94269.34;;;9.17;80.71
46638;BME280;32365;46.938;7.390;2022-09-27T18:40:10;94272.72;;;9.17;80.75
46638;BME280;32365;46.938;7.390;2022-09-27T18:42:37;94274.56;;;9.22;79.95
46638;BME280;32365;46.938;7.390;2022-09-27T18:45:03;94277.44;;;9.26;79.77
46638;BME280;32365;46.938;7.390;2022-09-27T18:47:30;94279.75;;;9.27;80.36
46638;BME280;32365;46.938;7.390;2022-09-27T18:49:56;94281.31;;;9.28;80.13
46638;BME280;32365;46.938;7.390;2022-09-27T18:52:24;94288.03;;;9.29;80.60
46638;BME280;32365;46.938;7.390;2022-09-27T18:54:50;94296.81;;;9.28;80.27
46638;BME280;32365;46.938;7.390;2022-09-27T18:57:17;94294.00;;;9.30;80.32
46638;BME280;32365;46.938;7.390;2022-09-27T18:59:43;94281.31;;;9.28;80.71
46638;BME280;32365;46.938;7.390;2022-09-27T19:02:13;94284.44;;;9.30;81.05
46638;BME280;32365;46.938;7.390;2022-09-27T19:04:39;94289.38;;;9.32;80.40
46638;BME280;32365;46.938;7.390;2022-09-27T19:07:06;94284.50;;;9.35;79.75
46638;BME280;32365;46.938;7.390;2022-09-27T19:09:34;94289.41;;;9.37;79.41
46638;BME280;32365;46.938;7.390;2022-09-27T19:12:01;94287.09;;;9.40;80.02
46638;BME280;32365;46.938;7.390;2022-09-27T19:14:27;94281.38;;;9.38;79.15
46638;BME280;32365;46.938;7.390;2022-09-27T19:16:54;94290.22;;;9.43;78.47
46638;BME280;32365;46.938;7.390;2022-09-27T19:19:21;94289.41;;;9.37;78.22
46638;BME280;32365;46.938;7.390;2022-09-27T19:21:48;94286.59;;;9.44;78.05
46638;BME280;32365;46.938;7.390;2022-09-27T19:24:14;94285.31;;;9.41;77.74
46638;BME280;32365;46.938;7.390;2022-09-27T19:26:43;94277.84;;;9.45;77.14
46638;BME280;32365;46.938;7.390;2022-09-27T19:29:10;94280.13;;;9.41;76.35
46638;BME280;32365;46.938;7.390;2022-09-27T19:31:36;94279.13;;;9.47;75.84
46638;BME280;32365;46.938;7.390;2022-09-27T19:34:03;94282.50;;;9.48;75.50
46638;BME280;32365;46.938;7.390;2022-09-27T19:36:29;94274.78;;;9.53;75.78
46638;BME280;32365;46.938;7.390;2022-09-27T19:38:56;94277.88;;;9.50;75.42
46638;BME280;32365;46.938;7.390;2022-09-27T19:41:23;94285.09;;;9.48;75.46
46638;BME280;32365;46.938;7.390;2022-09-27T19:43:50;94283.28;;;9.48;75.29
46638;BME280;32365;46.938;7.390;2022-09-27T19:46:17;94280.94;;;9.47;75.45
46638;BME280;32365;46.938;7.390;2022-09-27T19:48:44;94283.78;;;9.45;75.71
46638;BME280;32365;46.938;7.390;2022-09-27T19:51:11;94282.75;;;9.46;75.62
46638;BME280;32365;46.938;7.390;2022-09-27T19:53:39;94279.72;;;9.54;75.62
46638;BME280;32365;46.938;7.390;2022-09-27T19:56:06;94277.88;;;9.50;75.53
